createdAt,value
2023-04-09T00:00:29.556Z,101434.34
2023-04-09T00:02:57.419Z,101433.34
2023-04-09T00:05:26.732Z,101431.63
2023-04-09T00:07:54.730Z,101421.84
2023-04-09T00:10:22.624Z,101436.94
2023-04-09T00:12:50.532Z,101418.34
2023-04-09T00:15:29.967Z,101427.16
2023-04-09T00:17:59.441Z,101442.25
2023-04-09T00:20:28.929Z,101437.72
2023-04-09T00:22:56.750Z,101432.44
2023-04-09T00:25:24.743Z,101432.44
2023-04-09T00:27:52.610Z,101430.72
2023-04-09T00:30:20.480Z,101411.97
2023-04-09T00:32:48.493Z,101419.16
2023-04-09T00:35:17.410Z,101430.66
2023-04-09T00:37:46.917Z,101401.44
2023-04-09T00:40:15.438Z,101399.59
2023-04-09T00:42:43.444Z,101406.69
2023-04-09T00:45:11.955Z,101431.44
2023-04-09T00:47:39.961Z,101419.91
2023-04-09T00:50:08.699Z,101368.50
2023-04-09T00:52:37.076Z,101411.94
2023-04-09T00:55:07.354Z,101425.19
2023-04-09T00:57:35.033Z,101419.88
2023-04-09T01:00:04.067Z,101379.94
2023-04-09T01:02:32.076Z,101413.69
2023-04-09T01:05:00.705Z,101419.88
2023-04-09T01:07:37.594Z,101417.16
2023-04-09T01:10:18.144Z,101417.16
2023-04-09T01:12:55.656Z,101414.50
2023-04-09T01:15:27.899Z,101399.41
2023-04-09T01:18:06.208Z,101387.97
2023-04-09T01:20:40.529Z,101416.34
2023-04-09T01:23:17.395Z,101427.03
2023-04-09T01:26:02.392Z,101413.81
2023-04-09T01:28:43.760Z,101425.34
2023-04-09T01:31:14.491Z,101292.47
2023-04-09T01:33:42.956Z,101416.56
2023-04-09T01:36:11.465Z,101424.59
2023-04-09T01:38:42.435Z,101418.41
2023-04-09T01:41:13.052Z,101422.00
2023-04-09T01:43:43.532Z,101416.66
2023-04-09T01:46:12.345Z,101422.91
2023-04-09T01:48:40.492Z,101409.72
2023-04-09T01:51:08.507Z,101424.72
2023-04-09T01:53:37.094Z,101408.81
2023-04-09T01:56:05.657Z,101425.66
2023-04-09T01:58:34.330Z,101424.78
2023-04-09T02:01:08.230Z,101399.03
2023-04-09T02:03:41.006Z,101409.59
2023-04-09T02:06:15.537Z,101407.00
2023-04-09T02:08:47.431Z,101382.22
2023-04-09T02:11:16.420Z,101413.31
2023-04-09T02:13:45.382Z,101407.97
2023-04-09T02:16:16.694Z,101391.16
2023-04-09T02:18:45.169Z,101392.06
2023-04-09T02:21:13.782Z,101389.38
2023-04-09T02:23:41.849Z,101418.63
2023-04-09T02:26:09.714Z,101420.38
2023-04-09T02:28:37.646Z,101411.47
2023-04-09T02:31:06.165Z,101419.47
2023-04-09T02:33:35.824Z,101403.50
2023-04-09T02:36:03.685Z,101411.44
2023-04-09T02:38:31.979Z,101402.56
2023-04-09T02:40:59.931Z,101401.66
2023-04-09T02:43:28.259Z,101405.25
2023-04-09T02:45:56.177Z,101407.00
2023-04-09T02:48:24.133Z,101405.28
2023-04-09T02:50:53.407Z,101407.06
2023-04-09T02:53:21.531Z,101387.56
2023-04-09T02:55:49.495Z,101369.84
2023-04-09T02:58:17.459Z,101372.53
2023-04-09T03:00:45.474Z,101398.25
2023-04-09T03:03:13.500Z,101372.56
2023-04-09T03:05:41.595Z,101398.25
2023-04-09T03:08:10.867Z,101390.28
2023-04-09T03:10:38.784Z,101393.84
2023-04-09T03:13:06.748Z,101391.19
2023-04-09T03:15:34.660Z,101373.47
2023-04-09T03:18:02.727Z,101378.78
2023-04-09T03:20:32.292Z,101377.91
2023-04-09T03:23:00.212Z,101386.78
2023-04-09T03:25:38.323Z,101379.72
2023-04-09T03:28:13.012Z,101380.56
2023-04-09T03:30:47.728Z,101360.19
2023-04-09T03:33:16.412Z,101362.00
2023-04-09T03:35:56.240Z,101380.59
2023-04-09T03:38:40.073Z,101364.66
2023-04-09T03:41:16.004Z,101373.47
2023-04-09T03:43:44.108Z,101372.59
2023-04-09T03:46:14.120Z,101373.47
2023-04-09T03:48:44.660Z,101377.03
2023-04-09T03:51:13.708Z,101385.00
2023-04-09T03:53:45.882Z,101371.72
2023-04-09T03:56:15.516Z,101377.00
2023-04-09T03:58:43.979Z,101369.91
2023-04-09T04:01:14.143Z,101368.16
2023-04-09T04:03:52.859Z,101370.81
2023-04-09T04:06:24.249Z,101354.88
2023-04-09T04:09:09.494Z,101381.44
2023-04-09T04:11:46.092Z,101376.16
2023-04-09T04:14:14.639Z,101372.59
2023-04-09T04:16:45.809Z,101384.13
2023-04-09T04:19:18.018Z,101383.25
2023-04-09T04:21:49.320Z,101339.84
2023-04-09T04:24:17.703Z,101387.66
2023-04-09T04:26:47.046Z,101379.66
2023-04-09T04:29:18.499Z,101385.00
2023-04-09T04:31:57.705Z,101379.69
2023-04-09T04:34:31.680Z,101388.56
2023-04-09T04:37:23.124Z,101390.31
2023-04-09T04:39:55.770Z,101394.75
2023-04-09T04:42:25.688Z,101383.25
2023-04-09T04:44:53.958Z,101388.53
2023-04-09T04:47:44.023Z,101390.31
2023-04-09T04:50:12.152Z,101387.66
2023-04-09T04:52:52.693Z,101384.09
2023-04-09T04:55:23.097Z,101382.31
2023-04-09T04:57:53.556Z,101392.06
2023-04-09T05:00:25.399Z,101315.03
2023-04-09T05:02:53.720Z,101392.06
2023-04-09T05:05:42.018Z,101396.50
2023-04-09T05:08:10.589Z,101378.78
2023-04-09T05:10:41.525Z,101394.75
2023-04-09T05:13:10.940Z,101380.56
2023-04-09T05:15:40.787Z,101391.22
2023-04-09T05:18:10.561Z,101398.25
2023-04-09T05:20:38.879Z,101330.97
2023-04-09T05:23:12.543Z,101373.47
2023-04-09T05:25:49.733Z,101400.03
2023-04-09T05:28:27.158Z,101387.66
2023-04-09T05:31:07.431Z,101369.06
2023-04-09T05:33:38.293Z,101306.19
2023-04-09T05:36:16.440Z,101400.94
2023-04-09T05:38:44.544Z,101378.78
2023-04-09T05:41:12.512Z,101406.25
2023-04-09T05:43:51.023Z,101404.47
2023-04-09T05:46:19.207Z,101369.94
2023-04-09T05:48:47.942Z,101405.38
2023-04-09T05:51:16.550Z,101388.56
2023-04-09T05:53:44.693Z,101404.47
2023-04-09T05:56:16.559Z,101400.06
2023-04-09T05:58:55.591Z,101394.75
2023-04-09T06:01:23.796Z,101401.84
2023-04-09T06:03:52.863Z,101390.31
2023-04-09T06:06:22.674Z,101406.28
2023-04-09T06:08:50.531Z,101408.91
2023-04-09T06:11:18.346Z,101408.91
2023-04-09T06:13:46.199Z,101404.50
2023-04-09T06:16:16.100Z,101203.38
2023-04-09T06:18:45.997Z,101414.22
2023-04-09T06:21:14.532Z,101416.88
2023-04-09T06:23:42.424Z,101411.56
2023-04-09T06:26:10.622Z,101305.28
2023-04-09T06:28:38.540Z,101398.28
2023-04-09T06:31:06.437Z,101423.97
2023-04-09T06:33:35.663Z,101429.28
2023-04-09T06:36:03.607Z,101407.16
2023-04-09T06:38:31.429Z,101436.38
2023-04-09T06:40:59.313Z,101434.63
2023-04-09T06:43:27.174Z,101437.28
2023-04-09T06:45:55.051Z,101438.16
2023-04-09T06:48:22.932Z,101408.91
2023-04-09T06:50:52.106Z,101440.81
2023-04-09T06:53:20.128Z,101420.44
2023-04-09T06:55:47.978Z,101420.44
2023-04-09T06:58:16.479Z,101444.34
2023-04-09T07:00:44.412Z,101423.97
2023-04-09T07:03:12.618Z,101444.31
2023-04-09T07:05:40.527Z,101442.59
2023-04-09T07:08:09.749Z,101440.81
2023-04-09T07:10:37.543Z,101444.34
2023-04-09T07:13:05.439Z,101432.84
2023-04-09T07:15:33.423Z,101439.00
2023-04-09T07:18:01.365Z,101420.38
2023-04-09T07:20:29.253Z,101337.97
2023-04-09T07:22:57.275Z,101430.16
2023-04-09T07:25:26.616Z,101439.84
2023-04-09T07:27:54.714Z,101451.31
2023-04-09T07:30:22.938Z,101442.59
2023-04-09T07:32:50.966Z,101439.00
2023-04-09T07:35:19.560Z,101443.34
2023-04-09T07:37:47.396Z,101441.59
2023-04-09T07:40:15.340Z,101429.16
2023-04-09T07:42:44.570Z,101444.13
2023-04-09T07:45:12.470Z,101439.91
2023-04-09T07:47:41.354Z,101440.78
2023-04-09T07:50:10.567Z,101444.22
2023-04-09T07:52:38.667Z,101445.25
2023-04-09T07:55:07.374Z,101450.56
2023-04-09T07:57:35.324Z,101445.25
2023-04-09T08:00:05.130Z,101446.81
2023-04-09T08:02:40.996Z,101447.69
2023-04-09T08:05:10.229Z,101444.06
2023-04-09T08:07:38.107Z,101441.38
2023-04-09T08:10:06.921Z,101453.03
2023-04-09T08:12:34.954Z,101417.34
2023-04-09T08:15:04.656Z,101395.31
2023-04-09T08:17:32.521Z,101452.06
2023-04-09T08:20:00.517Z,101443.84
2023-04-09T08:22:28.376Z,101412.50
2023-04-09T08:24:57.362Z,101428.97
2023-04-09T08:27:25.499Z,101444.66
2023-04-09T08:29:53.336Z,101449.84
2023-04-09T08:32:22.774Z,101450.47
2023-04-09T08:34:50.697Z,101438.19
2023-04-09T08:37:18.530Z,101447.97
2023-04-09T08:39:46.324Z,101451.69
2023-04-09T08:42:16.099Z,101344.03
2023-04-09T08:44:44.749Z,101453.13
2023-04-09T08:47:13.039Z,101451.44
2023-04-09T08:49:42.284Z,101447.19
2023-04-09T08:52:10.126Z,101447.06
2023-04-09T08:54:38.412Z,101418.06
2023-04-09T08:57:06.812Z,101296.59
2023-04-09T08:59:37.011Z,101430.03
2023-04-09T09:02:08.755Z,101336.41
2023-04-09T09:04:47.484Z,101436.78
2023-04-09T09:07:16.166Z,101441.13
2023-04-09T09:09:55.105Z,101430.28
2023-04-09T09:12:36.525Z,101412.50
2023-04-09T09:15:05.554Z,101427.69
2023-04-09T09:17:33.493Z,101427.84
2023-04-09T09:20:20.555Z,101424.34
2023-04-09T09:22:54.936Z,101334.75
2023-04-09T09:25:25.462Z,101426.97
2023-04-09T09:27:54.848Z,101428.91
2023-04-09T09:30:23.869Z,101384.97
2023-04-09T09:32:53.984Z,101419.56
2023-04-09T09:35:23.557Z,101430.53
2023-04-09T09:38:03.862Z,101417.88
2023-04-09T09:40:32.049Z,101430.13
2023-04-09T09:42:59.980Z,101424.03
2023-04-09T09:45:28.524Z,101428.50
2023-04-09T09:47:56.929Z,101428.53
2023-04-09T09:50:26.448Z,101420.47
2023-04-09T09:52:59.835Z,101416.16
2023-04-09T09:55:31.647Z,101419.19
2023-04-09T09:58:04.544Z,101411.94
2023-04-09T10:00:34.108Z,101416.72
2023-04-09T10:03:13.144Z,101417.69
2023-04-09T10:05:42.929Z,101414.06
2023-04-09T10:08:11.546Z,101410.13
2023-04-09T10:10:42.038Z,101407.97
2023-04-09T10:13:15.494Z,101391.56
2023-04-09T10:15:45.160Z,101384.03
2023-04-09T10:18:13.099Z,101401.91
2023-04-09T10:20:48.915Z,101389.19
2023-04-09T10:23:25.638Z,101381.38
2023-04-09T10:25:54.525Z,101270.34
2023-04-09T10:28:24.403Z,101383.78
2023-04-09T10:30:54.887Z,101388.53
2023-04-09T10:33:27.834Z,101386.38
2023-04-09T10:36:01.535Z,101386.09
2023-04-09T10:38:37.182Z,101382.25
2023-04-09T10:41:14.949Z,101367.34
2023-04-09T10:43:43.137Z,101368.94
2023-04-09T10:46:27.165Z,101382.75
2023-04-09T10:49:13.959Z,101378.69
2023-04-09T10:51:45.112Z,101381.41
2023-04-09T10:54:43.674Z,101380.41
2023-04-09T10:57:13.669Z,101379.09
2023-04-09T10:59:43.132Z,101380.09
2023-04-09T11:02:37.341Z,101368.75
2023-04-09T11:05:16.306Z,101380.50
2023-04-09T11:07:48.987Z,101380.59
2023-04-09T11:10:16.894Z,101375.56
2023-04-09T11:12:44.831Z,101377.44
2023-04-09T11:15:17.740Z,101361.31
2023-04-09T11:17:48.701Z,101365.59
2023-04-09T11:20:18.374Z,101353.75
2023-04-09T11:22:47.734Z,101354.06
2023-04-09T11:25:20.791Z,101363.78
2023-04-09T11:27:48.881Z,101360.53
2023-04-09T11:30:16.769Z,101362.09
2023-04-09T11:32:44.854Z,101365.75
2023-04-09T11:35:14.351Z,101361.13
2023-04-09T11:37:42.930Z,101360.25
2023-04-09T11:40:17.957Z,101365.31
2023-04-09T11:42:46.897Z,101250.25
2023-04-09T11:45:16.249Z,101356.75
2023-04-09T11:47:46.460Z,101359.97
2023-04-09T11:50:15.393Z,101356.56
2023-04-09T11:52:43.450Z,101358.13
2023-04-09T11:55:12.169Z,101350.72
2023-04-09T11:57:45.936Z,101358.13
2023-04-09T12:00:15.546Z,101348.00
2023-04-09T12:02:44.510Z,101331.78
2023-04-09T12:05:14.188Z,101344.31
2023-04-09T12:07:55.473Z,101345.63
2023-04-09T12:10:28.495Z,101341.75
2023-04-09T12:13:03.232Z,101351.09
2023-04-09T12:15:33.821Z,101349.38
2023-04-09T12:18:02.379Z,101337.66
2023-04-09T12:20:34.867Z,101343.63
2023-04-09T12:23:04.553Z,101340.66
2023-04-09T12:25:32.818Z,101341.28
2023-04-09T12:28:03.188Z,101341.50
2023-04-09T12:30:31.617Z,101337.91
2023-04-09T12:32:59.785Z,101302.72
2023-04-09T12:35:28.298Z,101346.16
2023-04-09T12:37:56.325Z,101342.78
2023-04-09T12:40:24.341Z,101340.69
2023-04-09T12:42:53.006Z,101338.34
2023-04-09T12:45:23.253Z,101341.00
2023-04-09T12:47:51.166Z,101332.88
2023-04-09T12:50:19.111Z,101329.22
2023-04-09T12:52:47.290Z,101328.28
2023-04-09T12:55:16.146Z,101322.22
2023-04-09T12:57:45.804Z,101322.28
2023-04-09T13:00:14.764Z,101309.16
2023-04-09T13:02:44.167Z,101323.00
2023-04-09T13:05:12.292Z,101314.59
2023-04-09T13:07:42.342Z,101311.72
2023-04-09T13:10:11.412Z,101308.50
2023-04-09T13:12:39.356Z,101308.41
2023-04-09T13:15:08.330Z,101310.41
2023-04-09T13:17:36.118Z,101307.13
2023-04-09T13:20:05.995Z,101299.00
2023-04-09T13:22:33.857Z,101233.16
2023-04-09T13:25:01.701Z,101298.09
2023-04-09T13:27:29.532Z,101294.06
2023-04-09T13:29:57.404Z,101286.97
2023-04-09T13:32:25.293Z,101296.69
2023-04-09T13:34:54.512Z,101292.19
2023-04-09T13:37:23.689Z,101289.50
2023-04-09T13:39:51.650Z,101287.94
2023-04-09T13:42:19.458Z,101239.94
2023-04-09T13:44:47.348Z,101282.25
2023-04-09T13:47:16.947Z,101263.84
2023-04-09T13:49:45.090Z,101292.06
2023-04-09T13:52:13.012Z,101283.78
2023-04-09T13:54:42.201Z,101268.28
2023-04-09T13:57:10.360Z,101263.22
2023-04-09T13:59:39.061Z,101277.50
2023-04-09T14:02:07.093Z,101256.72
2023-04-09T14:04:35.157Z,101282.41
2023-04-09T14:07:03.087Z,101280.00
2023-04-09T14:09:31.140Z,101274.13
2023-04-09T14:12:01.542Z,101262.88
2023-04-09T14:14:29.360Z,101277.56
2023-04-09T14:16:57.134Z,101280.47
2023-04-09T14:19:24.995Z,101274.59
2023-04-09T14:21:54.154Z,101277.34
2023-04-09T14:24:23.146Z,101266.88
2023-04-09T14:26:53.354Z,101268.97
2023-04-09T14:29:22.915Z,101255.22
2023-04-09T14:31:51.728Z,101267.94
2023-04-09T14:34:19.586Z,101268.16
2023-04-09T14:36:47.638Z,101264.44
2023-04-09T14:39:15.630Z,101268.31
2023-04-09T14:41:43.387Z,101262.59
2023-04-09T14:44:14.580Z,101224.03
2023-04-09T14:46:44.598Z,101248.84
2023-04-09T14:49:12.512Z,101240.84
2023-04-09T14:51:40.304Z,101239.84
2023-04-09T14:54:08.032Z,101163.44
2023-04-09T14:56:35.974Z,101239.59
2023-04-09T14:59:04.338Z,101237.94
2023-04-09T15:01:33.379Z,101224.69
2023-04-09T15:04:02.751Z,101236.53
2023-04-09T15:06:31.331Z,101237.16
2023-04-09T15:08:59.158Z,101238.91
2023-04-09T15:11:27.913Z,101236.84
2023-04-09T15:13:56.230Z,101196.69
2023-04-09T15:16:25.796Z,101138.13
2023-04-09T15:18:55.849Z,101198.00
2023-04-09T15:21:26.073Z,101221.25
2023-04-09T15:23:54.325Z,101218.09
2023-04-09T15:26:22.147Z,101176.63
2023-04-09T15:28:51.202Z,101214.94
2023-04-09T15:31:19.173Z,101214.78
2023-04-09T15:33:48.237Z,101174.78
2023-04-09T15:36:16.021Z,101178.47
2023-04-09T15:38:45.189Z,101193.97
2023-04-09T15:41:13.148Z,101188.69
2023-04-09T15:43:41.002Z,101217.84
2023-04-09T15:46:10.727Z,101207.56
2023-04-09T15:48:38.993Z,101203.88
2023-04-09T15:51:07.218Z,101201.44
2023-04-09T15:53:35.188Z,101203.31
2023-04-09T15:56:05.492Z,101193.41
2023-04-09T15:58:33.150Z,101190.09
2023-04-09T16:01:01.455Z,101182.72
2023-04-09T16:03:29.288Z,101184.59
2023-04-09T16:05:57.064Z,101193.88
2023-04-09T16:08:26.601Z,101177.72
2023-04-09T16:10:54.341Z,101174.75
2023-04-09T16:13:23.549Z,101194.44
2023-04-09T16:15:51.817Z,101140.47
2023-04-09T16:18:19.789Z,101186.06
2023-04-09T16:20:47.540Z,101147.03
2023-04-09T16:23:15.398Z,101176.47
2023-04-09T16:25:43.167Z,101189.97
2023-04-09T16:28:11.091Z,101170.09
2023-04-09T16:30:40.612Z,101186.44
2023-04-09T16:33:08.752Z,101165.38
2023-04-09T16:35:38.675Z,101153.72
2023-04-09T16:38:08.367Z,101135.22
2023-04-09T16:40:36.428Z,101181.72
2023-04-09T16:43:04.455Z,101180.00
2023-04-09T16:45:32.738Z,101189.53
2023-04-09T16:48:02.146Z,101193.56
2023-04-09T16:50:29.964Z,101190.97
2023-04-09T16:52:57.730Z,101184.59
2023-04-09T16:55:25.701Z,101115.84
2023-04-09T16:57:55.931Z,101175.53
2023-04-09T17:00:23.773Z,101180.16
2023-04-09T17:02:51.967Z,101079.94
2023-04-09T17:05:22.443Z,101178.28
2023-04-09T17:07:50.231Z,101182.97
2023-04-09T17:10:19.146Z,101137.47
2023-04-09T17:12:48.337Z,101178.66
2023-04-09T17:15:16.283Z,101153.28
2023-04-09T17:17:45.710Z,101183.47
2023-04-09T17:20:14.144Z,101193.47
2023-04-09T17:22:43.490Z,101145.34
2023-04-09T17:25:11.931Z,101186.59
2023-04-09T17:27:39.699Z,101184.03
2023-04-09T17:30:08.648Z,101162.66
2023-04-09T17:32:36.758Z,101166.56
2023-04-09T17:35:06.984Z,101170.53
2023-04-09T17:37:35.417Z,101192.47
2023-04-09T17:40:05.348Z,101197.63
2023-04-09T17:42:33.224Z,101191.63
2023-04-09T17:45:01.212Z,101187.69
2023-04-09T17:47:28.947Z,101187.47
2023-04-09T17:49:56.825Z,101156.72
2023-04-09T17:52:24.566Z,101154.47
2023-04-09T17:54:52.367Z,101192.06
2023-04-09T17:57:21.524Z,101186.31
2023-04-09T17:59:49.311Z,101160.19
2023-04-09T18:02:17.461Z,101185.09
2023-04-09T18:04:45.541Z,101160.41
2023-04-09T18:07:13.612Z,101180.69
2023-04-09T18:09:41.896Z,101182.03
2023-04-09T18:12:09.697Z,101186.59
2023-04-09T18:14:38.912Z,101188.75
2023-04-09T18:17:07.004Z,101182.06
2023-04-09T18:19:34.774Z,101192.34
2023-04-09T18:22:02.568Z,101202.28
2023-04-09T18:24:30.327Z,101193.25
2023-04-09T18:26:58.154Z,101198.06
2023-04-09T18:29:27.460Z,101163.63
2023-04-09T18:31:57.453Z,101158.38
2023-04-09T18:34:26.275Z,101102.97
2023-04-09T18:36:55.433Z,101133.19
2023-04-09T18:39:23.617Z,101195.28
2023-04-09T18:41:51.539Z,101191.94
2023-04-09T18:44:19.353Z,101195.69
2023-04-09T18:46:47.237Z,101187.00
2023-04-09T18:49:16.378Z,101193.59
2023-04-09T18:51:44.233Z,101128.59
2023-04-09T18:54:12.156Z,101195.75
2023-04-09T18:56:39.948Z,101172.00
2023-04-09T18:59:07.719Z,101174.78
2023-04-09T19:01:35.593Z,101168.63
2023-04-09T19:04:03.637Z,101189.09
2023-04-09T19:06:33.189Z,101194.75
2023-04-09T19:09:01.149Z,101198.84
2023-04-09T19:11:29.285Z,101160.31
2023-04-09T19:13:57.181Z,101200.59
2023-04-09T19:16:25.081Z,101205.22
2023-04-09T19:18:53.126Z,101215.06
2023-04-09T19:21:21.117Z,101216.06
2023-04-09T19:23:50.219Z,101216.94
2023-04-09T19:26:18.214Z,101203.06
2023-04-09T19:28:46.831Z,101218.31
2023-04-09T19:31:16.033Z,101164.41
2023-04-09T19:33:44.090Z,101213.84
2023-04-09T19:36:12.951Z,101210.94
2023-04-09T19:38:40.910Z,101208.19
2023-04-09T19:41:10.437Z,101217.28
2023-04-09T19:43:39.408Z,101189.13
2023-04-09T19:46:08.570Z,101188.25
2023-04-09T19:48:36.484Z,101190.13
2023-04-09T19:51:04.721Z,101172.72
2023-04-09T19:53:32.822Z,101215.16
2023-04-09T19:56:00.804Z,101194.88
2023-04-09T19:58:31.957Z,101186.13
2023-04-09T20:00:59.894Z,101202.00
2023-04-09T20:03:27.773Z,101197.38
2023-04-09T20:05:55.735Z,101176.25
2023-04-09T20:08:23.603Z,101194.72
2023-04-09T20:10:52.720Z,101206.44
2023-04-09T20:13:20.559Z,101168.47
2023-04-09T20:15:50.160Z,101216.13
2023-04-09T20:18:17.949Z,101150.84
2023-04-09T20:20:45.859Z,101218.09
2023-04-09T20:23:13.829Z,101197.78
2023-04-09T20:25:41.626Z,101212.81
2023-04-09T20:28:09.926Z,101187.44
2023-04-09T20:30:37.818Z,101215.16
2023-04-09T20:33:07.326Z,101222.38
2023-04-09T20:35:36.119Z,101148.19
2023-04-09T20:38:04.119Z,101213.66
2023-04-09T20:40:32.398Z,101214.56
2023-04-09T20:43:00.478Z,101186.25
2023-04-09T20:45:28.338Z,101201.28
2023-04-09T20:47:56.236Z,101204.88
2023-04-09T20:50:25.868Z,101199.66
2023-04-09T20:52:53.720Z,101203.13
2023-04-09T20:55:24.340Z,101204.91
2023-04-09T20:57:52.773Z,101188.03
2023-04-09T21:00:20.840Z,101207.66
2023-04-09T21:02:48.916Z,101194.25
2023-04-09T21:05:23.564Z,101188.91
2023-04-09T21:07:53.573Z,101189.34
2023-04-09T21:10:21.450Z,101183.97
2023-04-09T21:12:49.417Z,101180.44
2023-04-09T21:15:17.430Z,101185.78
2023-04-09T21:17:45.546Z,101179.63
2023-04-09T21:20:15.034Z,101137.34
2023-04-09T21:22:42.919Z,101185.88
2023-04-09T21:25:14.580Z,101139.94
2023-04-09T21:27:43.189Z,101186.75
2023-04-09T21:30:11.514Z,101182.31
2023-04-09T21:32:39.376Z,101191.13
2023-04-09T21:35:07.774Z,101156.75
2023-04-09T21:37:37.464Z,101138.19
2023-04-09T21:40:06.193Z,101186.75
2023-04-09T21:42:35.501Z,101182.38
2023-04-09T21:45:03.727Z,101166.50
2023-04-09T21:47:31.959Z,101182.47
2023-04-09T21:50:00.112Z,101182.50
2023-04-09T21:52:28.099Z,101177.16
2023-04-09T21:54:55.948Z,101183.22
2023-04-09T21:57:23.818Z,101189.63
2023-04-09T21:59:53.080Z,101185.13
2023-04-09T22:02:20.961Z,101183.31
2023-04-09T22:04:48.917Z,101178.94
2023-04-09T22:07:17.034Z,101181.59
2023-04-09T22:09:44.831Z,101185.19
2023-04-09T22:12:12.681Z,101191.47
2023-04-09T22:14:41.759Z,101171.97
2023-04-09T22:17:11.119Z,101192.34
2023-04-09T22:19:38.998Z,101186.19
2023-04-09T22:22:06.764Z,101184.50
2023-04-09T22:24:34.597Z,101150.97
2023-04-09T22:27:02.676Z,101150.06
2023-04-09T22:29:30.600Z,101164.22
2023-04-09T22:31:58.453Z,101022.88
2023-04-09T22:34:27.743Z,101178.34
2023-04-09T22:36:55.510Z,101173.94
2023-04-09T22:39:23.367Z,101107.69
2023-04-09T22:41:51.157Z,101168.72
2023-04-09T22:44:19.066Z,101156.41
2023-04-09T22:46:47.034Z,101179.41
2023-04-09T22:49:15.006Z,101172.34
2023-04-09T22:51:44.263Z,101109.66
2023-04-09T22:54:12.150Z,101163.53
2023-04-09T22:56:40.388Z,101178.56
2023-04-09T22:59:08.273Z,101145.84
2023-04-09T23:01:36.739Z,101152.00
2023-04-09T23:04:04.813Z,101158.22
2023-04-09T23:06:32.752Z,101041.53
2023-04-09T23:09:01.946Z,101075.13
2023-04-09T23:11:30.519Z,101166.16
2023-04-09T23:13:58.390Z,101102.53
2023-04-09T23:16:26.301Z,101160.91
2023-04-09T23:18:54.538Z,101158.25
2023-04-09T23:21:22.644Z,101167.13
2023-04-09T23:23:50.511Z,101169.78
2023-04-09T23:26:19.712Z,101175.09
2023-04-09T23:28:47.525Z,101175.09
2023-04-09T23:31:16.063Z,101176.00
2023-04-09T23:33:43.996Z,101153.88
2023-04-09T23:36:11.929Z,101176.84
2023-04-09T23:38:40.446Z,101146.81
2023-04-09T23:41:08.594Z,101164.53
2023-04-09T23:43:37.735Z,101176.91
2023-04-09T23:46:06.183Z,101176.03
2023-04-09T23:48:34.025Z,101111.50
2023-04-09T23:51:01.820Z,101172.50
2023-04-09T23:53:29.706Z,101161.03
2023-04-09T23:55:57.575Z,101175.19
2023-04-09T23:58:25.535Z,101154.84
